Time;durP1;ratioP1;P1;durP2;ratioP2;P2;SDS_P1;SDS_P2;PMS_P1;PMS_P2;Temp;Humidity;BMP_temperature;BMP_pressure;BME280_temperature;BME280_humidity;BME280_pressure;Samples;Min_cycle;Max_cycle;Signal;HPM_P1;HPM_P2
2022/01/29 00:00:48;;;;;;;41.28;12.80;;;6.60;99.90;;;;;;5072083;28;20470;-67
2022/01/29 00:03:13;;;;;;;37.25;13.68;;;6.60;99.90;;;;;;5064750;28;20376;-67
2022/01/29 00:05:39;;;;;;;33.95;13.00;;;6.60;99.90;;;;;;5071051;28;20058;-68
2022/01/29 00:08:05;;;;;;;34.30;13.57;;;6.70;99.90;;;;;;5073100;28;20045;-66
2022/01/29 00:10:31;;;;;;;30.70;12.10;;;6.70;99.90;;;;;;5074542;28;20072;-67
2022/01/29 00:12:57;;;;;;;35.42;12.40;;;6.70;99.90;;;;;;5076621;28;20057;-66
2022/01/29 00:15:23;;;;;;;33.90;12.70;;;6.70;99.90;;;;;;5071404;28;20055;-67
2022/01/29 00:17:49;;;;;;;31.02;11.55;;;6.70;99.90;;;;;;5062808;28;20092;-65
2022/01/29 00:20:15;;;;;;;33.25;11.80;;;6.80;99.90;;;;;;5071588;28;20040;-66
2022/01/29 00:22:41;;;;;;;30.55;11.88;;;6.80;99.90;;;;;;5069648;28;20044;-67
2022/01/29 00:25:10;;;;;;;28.95;12.25;;;6.80;99.90;;;;;;5074253;28;20076;-67
2022/01/29 00:27:37;;;;;;;32.28;11.80;;;6.90;99.90;;;;;;5073213;28;20040;-66
2022/01/29 00:30:08;;;;;;;30.92;10.45;;;6.80;99.90;;;;;;5071753;28;20102;-68
2022/01/29 00:32:34;;;;;;;33.63;12.68;;;6.90;99.90;;;;;;5067776;28;20037;-67
2022/01/29 00:35:00;;;;;;;33.60;12.48;;;6.90;99.90;;;;;;5072238;28;20076;-68
2022/01/29 00:37:25;;;;;;;35.70;12.55;;;6.90;99.90;;;;;;5067681;28;20060;-69
2022/01/29 00:39:51;;;;;;;30.48;12.43;;;6.90;99.90;;;;;;5047621;28;20044;-66
2022/01/29 00:42:17;;;;;;;37.17;12.45;;;6.90;99.90;;;;;;5069953;28;20040;-67
2022/01/29 00:44:44;;;;;;;28.50;12.52;;;6.90;99.90;;;;;;5069886;28;20045;-69
2022/01/29 00:47:10;;;;;;;28.80;11.88;;;6.90;99.90;;;;;;5065723;28;20094;-67
2022/01/29 00:49:35;;;;;;;33.60;12.65;;;6.90;99.90;;;;;;5061309;28;20036;-67
2022/01/29 00:52:01;;;;;;;32.83;13.48;;;8.40;99.90;;;;;;5073735;28;20039;-66
2022/01/29 00:54:27;;;;;;;29.30;13.40;;;6.90;99.90;;;;;;5063763;28;20517;-67
2022/01/29 00:56:52;;;;;;;32.05;12.75;;;6.90;99.90;;;;;;5061175;28;20120;-69
2022/01/29 00:59:18;;;;;;;36.40;13.75;;;6.90;99.90;;;;;;5061520;28;20043;-67
2022/01/29 01:01:44;;;;;;;35.17;12.63;;;7.00;99.90;;;;;;5074678;28;20051;-66
2022/01/29 01:04:09;;;;;;;25.55;12.00;;;7.00;99.90;;;;;;5066637;28;20049;-66
2022/01/29 01:06:35;;;;;;;32.10;12.95;;;7.00;99.90;;;;;;5065047;28;20044;-67
2022/01/29 01:09:00;;;;;;;36.17;13.18;;;7.00;99.90;;;;;;5061869;28;20475;-67
2022/01/29 01:11:26;;;;;;;38.05;14.32;;;7.00;99.90;;;;;;5069296;28;20045;-68
2022/01/29 01:13:52;;;;;;;28.42;12.70;;;7.00;99.90;;;;;;5072006;28;20044;-67
2022/01/29 01:16:17;;;;;;;27.90;13.70;;;7.10;99.90;;;;;;5057222;28;20095;-66
2022/01/29 01:18:43;;;;;;;39.60;13.38;;;7.10;99.90;;;;;;5062008;28;20253;-67
2022/01/29 01:21:08;;;;;;;30.77;14.25;;;7.10;99.90;;;;;;5069121;28;20028;-67
2022/01/29 01:23:34;;;;;;;37.20;14.05;;;7.10;99.90;;;;;;5071181;28;20083;-69
2022/01/29 01:26:01;;;;;;;47.88;16.10;;;7.10;99.90;;;;;;5062178;28;20041;-68
2022/01/29 01:28:27;;;;;;;35.53;13.73;;;7.40;99.90;;;;;;5070056;28;20051;-66
2022/01/29 01:30:53;;;;;;;32.40;15.10;;;7.20;99.90;;;;;;5062375;28;20053;-68
2022/01/29 01:33:19;;;;;;;28.23;13.20;;;7.20;99.90;;;;;;5068852;28;20102;-66
2022/01/29 01:35:50;;;;;;;40.20;14.02;;;7.10;99.90;;;;;;5069129;28;20045;-67
2022/01/29 01:38:21;;;;;;;37.78;14.90;;;7.10;99.90;;;;;;5069248;28;20368;-67
2022/01/29 01:40:52;;;;;;;31.50;14.02;;;7.20;99.90;;;;;;5070405;28;20044;-66
2022/01/29 01:43:18;;;;;;;32.08;13.70;;;7.20;99.90;;;;;;5067982;28;20055;-67
2022/01/29 01:45:44;;;;;;;33.75;14.32;;;7.20;99.90;;;;;;5061758;28;20120;-66
2022/01/29 01:48:10;;;;;;;37.13;15.13;;;7.20;99.90;;;;;;5065558;28;20036;-68
2022/01/29 01:50:37;;;;;;;40.42;15.50;;;7.20;99.90;;;;;;5064143;28;20407;-66
2022/01/29 01:53:03;;;;;;;44.33;15.70;;;7.20;99.90;;;;;;5062969;28;20087;-67
2022/01/29 01:55:29;;;;;;;41.53;15.13;;;7.20;99.90;;;;;;5072529;28;20483;-67
2022/01/29 01:57:57;;;;;;;44.30;16.75;;;7.30;99.90;;;;;;5071200;28;20052;-65
2022/01/29 02:00:25;;;;;;;40.83;16.23;;;7.30;99.90;;;;;;5071983;28;20123;-67
2022/01/29 02:02:50;;;;;;;46.05;15.48;;;7.30;99.90;;;;;;5059852;28;20037;-66
2022/01/29 02:05:17;;;;;;;47.28;16.73;;;7.30;99.90;;;;;;5062484;28;20051;-67
2022/01/29 02:07:45;;;;;;;40.72;15.90;;;7.20;99.90;;;;;;5074108;28;20041;-67
2022/01/29 02:10:12;;;;;;;42.67;15.00;;;7.30;99.90;;;;;;5069090;28;20043;-67
2022/01/29 02:12:44;;;;;;;38.90;16.10;;;7.30;99.90;;;;;;5060443;28;20290;-65
2022/01/29 02:15:11;;;;;;;36.17;15.43;;;7.30;99.90;;;;;;5069210;28;20146;-66
2022/01/29 02:17:37;;;;;;;37.35;14.25;;;7.30;99.90;;;;;;5069666;28;20132;-67
2022/01/29 02:20:04;;;;;;;33.42;14.70;;;7.30;99.90;;;;;;5073176;28;20154;-70
2022/01/29 02:22:29;;;;;;;42.58;15.27;;;7.30;99.90;;;;;;5058453;28;20049;-66
2022/01/29 02:24:55;;;;;;;37.53;15.30;;;7.30;99.90;;;;;;5059747;28;20110;-66
2022/01/29 02:27:20;;;;;;;32.15;14.38;;;7.40;99.90;;;;;;5072753;28;20056;-66
2022/01/29 02:29:48;;;;;;;40.20;14.13;;;7.40;99.90;;;;;;5067063;28;20045;-67
2022/01/29 02:32:14;;;;;;;34.70;13.63;;;7.40;99.90;;;;;;5062248;28;20048;-66
2022/01/29 02:34:43;;;;;;;34.92;13.35;;;7.40;99.90;;;;;;5059733;28;20044;-67
2022/01/29 02:37:08;;;;;;;38.03;14.13;;;7.40;99.90;;;;;;5065410;28;20041;-67
2022/01/29 02:39:34;;;;;;;34.42;13.50;;;7.40;99.90;;;;;;5073499;28;20060;-67
2022/01/29 02:42:00;;;;;;;38.65;13.25;;;7.40;99.90;;;;;;5069809;28;20052;-67
2022/01/29 02:44:25;;;;;;;32.47;12.93;;;7.50;99.90;;;;;;5072754;28;20460;-67
2022/01/29 02:46:53;;;;;;;30.70;13.15;;;7.50;99.90;;;;;;5072870;28;20048;-68
2022/01/29 02:49:24;;;;;;;37.78;12.65;;;7.50;99.90;;;;;;5074186;28;20051;-66
2022/01/29 02:51:52;;;;;;;31.75;12.82;;;7.60;99.90;;;;;;5074887;28;20048;-68
2022/01/29 02:54:21;;;;;;;29.95;12.75;;;7.60;99.90;;;;;;5068747;28;20044;-69
2022/01/29 02:56:47;;;;;;;33.38;12.43;;;7.60;99.90;;;;;;5061444;28;20049;-66
2022/01/29 02:59:14;;;;;;;28.27;12.50;;;7.60;99.90;;;;;;5062636;28;20647;-67
2022/01/29 03:01:40;;;;;;;34.28;13.13;;;7.70;99.90;;;;;;5064282;28;20036;-68
2022/01/29 03:04:06;;;;;;;29.02;12.52;;;7.60;99.90;;;;;;5074555;28;20398;-67
2022/01/29 03:06:33;;;;;;;31.73;12.63;;;7.60;99.90;;;;;;5067228;28;20045;-67
2022/01/29 03:08:59;;;;;;;35.05;13.18;;;7.60;99.90;;;;;;5075278;28;20125;-67
2022/01/29 03:11:24;;;;;;;33.03;12.82;;;7.60;99.90;;;;;;5056035;28;20048;-68
2022/01/29 03:13:50;;;;;;;30.48;13.80;;;7.60;99.90;;;;;;5076470;28;20033;-67
2022/01/29 03:16:17;;;;;;;35.35;13.75;;;7.70;99.90;;;;;;5066639;28;20129;-67
2022/01/29 03:18:43;;;;;;;35.85;13.48;;;7.70;99.90;;;;;;5071719;28;20049;-68
2022/01/29 03:21:09;;;;;;;36.53;13.18;;;7.80;99.90;;;;;;5073880;28;20052;-66
2022/01/29 03:23:34;;;;;;;31.35;13.75;;;7.70;99.90;;;;;;5073154;28;20440;-69
2022/01/29 03:26:00;;;;;;;38.90;14.02;;;7.70;99.90;;;;;;5066588;28;20079;-66
2022/01/29 03:28:29;;;;;;;42.92;14.55;;;7.80;99.90;;;;;;5073258;28;20441;-68
2022/01/29 03:30:58;;;;;;;34.13;13.38;;;7.70;99.90;;;;;;5067659;28;20127;-66
2022/01/29 03:33:24;;;;;;;32.20;13.10;;;7.80;99.90;;;;;;5068645;28;20564;-66
2022/01/29 03:35:50;;;;;;;36.47;14.20;;;7.80;99.90;;;;;;5078116;28;20110;-66
2022/01/29 03:38:17;;;;;;;35.08;14.07;;;7.80;99.90;;;;;;5070701;28;20055;-67
2022/01/29 03:40:45;;;;;;;36.30;13.57;;;7.80;99.90;;;;;;5077805;28;20036;-66
2022/01/29 03:43:13;;;;;;;26.58;13.57;;;7.90;99.90;;;;;;5070021;28;20072;-67
2022/01/29 03:45:39;;;;;;;31.40;12.57;;;7.80;99.90;;;;;;5073342;28;20037;-69
2022/01/29 03:48:08;;;;;;;31.10;13.38;;;7.90;99.90;;;;;;5068043;28;20045;-67
2022/01/29 03:50:33;;;;;;;;;;;7.80;99.90;;;;;;5061783;28;20407;-66
2022/01/29 03:52:59;;;;;;;32.28;13.77;;;7.80;99.90;;;;;;5063739;28;19920;-69
2022/01/29 03:55:25;;;;;;;24.02;12.77;;;7.80;99.90;;;;;;5058154;28;20095;-67
2022/01/29 03:57:52;;;;;;;33.70;14.50;;;7.90;99.90;;;;;;5056423;28;20106;-66
2022/01/29 04:00:18;;;;;;;35.83;15.05;;;7.90;99.90;;;;;;5067853;28;20152;-66
2022/01/29 04:02:43;;;;;;;38.22;13.75;;;7.90;99.90;;;;;;5073035;28;20115;-68
2022/01/29 04:05:10;;;;;;;36.30;13.45;;;7.90;99.90;;;;;;5066759;28;20442;-68
2022/01/29 04:07:36;;;;;;;31.77;14.02;;;7.90;99.90;;;;;;5078495;28;20048;-68
2022/01/29 04:10:02;;;;;;;33.15;13.27;;;7.90;99.90;;;;;;5069718;28;20052;-67
2022/01/29 04:12:32;;;;;;;32.33;14.27;;;7.90;99.90;;;;;;5064050;28;20053;-67
2022/01/29 04:14:58;;;;;;;35.17;14.18;;;7.90;99.90;;;;;;5073794;28;20502;-67
2022/01/29 04:17:24;;;;;;;33.17;14.10;;;8.20;99.90;;;;;;5066553;28;20073;-68
2022/01/29 04:19:49;;;;;;;26.33;12.75;;;7.90;99.90;;;;;;5073148;28;20135;-66
2022/01/29 04:22:15;;;;;;;29.98;14.07;;;7.90;99.90;;;;;;5066348;28;20037;-66
2022/01/29 04:24:41;;;;;;;31.20;13.77;;;7.90;99.90;;;;;;5073554;28;20133;-67
2022/01/29 04:27:16;;;;;;;30.23;14.50;;;7.90;99.90;;;;;;5063233;28;20062;-67
2022/01/29 04:29:54;;;;;;;38.67;16.33;;;7.90;99.90;;;;;;5075264;28;20415;-68
2022/01/29 04:32:26;;;;;;;37.83;15.05;;;7.90;99.90;;;;;;5062241;28;20044;-69
2022/01/29 04:34:52;;;;;;;30.08;13.95;;;8.00;99.90;;;;;;5069699;28;20045;-68
2022/01/29 04:37:18;;;;;;;34.05;14.10;;;7.90;99.90;;;;;;5064417;28;20114;-67
2022/01/29 04:39:43;;;;;;;32.55;13.80;;;8.00;99.90;;;;;;5068917;28;20041;-67
2022/01/29 04:42:09;;;;;;;31.65;14.50;;;8.00;99.90;;;;;;5066875;28;20080;-66
2022/01/29 04:44:34;;;;;;;27.00;13.85;;;8.00;99.90;;;;;;5070288;28;20036;-68
2022/01/29 04:47:00;;;;;;;28.08;14.77;;;8.00;99.90;;;;;;5067226;28;20497;-67
2022/01/29 04:49:26;;;;;;;32.80;13.93;;;8.10;99.90;;;;;;5072324;28;20090;-68
2022/01/29 04:51:51;;;;;;;28.05;14.30;;;8.10;99.90;;;;;;5077090;28;20087;-66
2022/01/29 04:54:17;;;;;;;28.45;14.60;;;8.10;99.90;;;;;;5074579;28;20094;-68
2022/01/29 04:56:42;;;;;;;33.55;14.18;;;8.10;99.90;;;;;;5064889;28;20040;-68
2022/01/29 04:59:08;;;;;;;30.42;14.50;;;8.00;99.90;;;;;;5073996;28;20049;-66
2022/01/29 05:01:34;;;;;;;32.33;14.80;;;8.10;99.90;;;;;;5068529;28;20090;-67
2022/01/29 05:03:59;;;;;;;35.45;14.93;;;8.10;99.90;;;;;;5065832;28;20164;-66
2022/01/29 05:06:25;;;;;;;30.58;14.80;;;8.10;99.90;;;;;;5066690;28;20036;-68
2022/01/29 05:08:50;;;;;;;39.28;15.85;;;8.10;99.90;;;;;;5066080;28;20029;-68
2022/01/29 05:11:17;;;;;;;28.83;14.07;;;8.10;99.90;;;;;;5056706;28;20047;-67
2022/01/29 05:13:43;;;;;;;28.70;13.65;;;8.10;99.90;;;;;;5070455;28;20100;-68
2022/01/29 05:27:04;;;;;;;34.38;14.50;;;8.20;99.90;;;;;;5058310;28;20499;-66
2022/01/29 05:29:32;;;;;;;30.38;13.65;;;8.20;99.90;;;;;;5070211;28;20052;-68
2022/01/29 05:31:59;;;;;;;34.65;15.23;;;8.20;99.90;;;;;;5070117;28;20045;-67
2022/01/29 05:34:25;;;;;;;28.05;14.15;;;8.20;99.90;;;;;;5073629;28;20037;-67
2022/01/29 05:36:53;;;;;;;34.13;15.02;;;8.20;99.90;;;;;;5070374;28;20041;-67
2022/01/29 05:39:19;;;;;;;34.25;15.25;;;8.20;99.90;;;;;;5062097;28;20546;-68
2022/01/29 05:41:46;;;;;;;27.63;14.07;;;8.20;99.90;;;;;;5070616;28;20117;-69
2022/01/29 05:44:11;;;;;;;33.83;14.85;;;8.30;99.90;;;;;;5072747;28;20040;-68
2022/01/29 05:46:39;;;;;;;30.27;14.15;;;8.90;99.90;;;;;;5070277;28;20823;-67
2022/01/29 05:49:05;;;;;;;31.05;14.70;;;8.40;99.90;;;;;;5073547;28;20546;-69
2022/01/29 05:51:31;;;;;;;27.20;14.27;;;8.20;99.90;;;;;;5071753;28;20044;-66
2022/01/29 05:53:58;;;;;;;27.13;14.13;;;8.30;99.90;;;;;;5070078;28;20117;-69
2022/01/29 05:56:24;;;;;;;27.15;14.13;;;8.30;99.90;;;;;;5070763;28;20045;-69
2022/01/29 05:58:50;;;;;;;28.15;15.45;;;8.30;99.90;;;;;;5064773;28;20072;-66
2022/01/29 06:01:15;;;;;;;28.08;14.32;;;8.30;99.90;;;;;;5064774;28;20123;-67
2022/01/29 06:03:41;;;;;;;29.90;13.82;;;8.30;99.90;;;;;;5067406;28;20036;-66
2022/01/29 06:06:06;;;;;;;31.08;14.35;;;8.30;99.90;;;;;;5068227;28;20123;-67
2022/01/29 06:08:32;;;;;;;30.80;14.95;;;8.30;99.90;;;;;;5075434;28;20067;-67
2022/01/29 06:10:58;;;;;;;27.63;13.60;;;8.30;99.90;;;;;;5067420;28;20087;-68
2022/01/29 06:13:23;;;;;;;29.95;13.98;;;8.40;99.90;;;;;;5067111;28;20044;-68
2022/01/29 06:15:50;;;;;;;28.25;14.95;;;8.40;99.90;;;;;;5067007;28;20037;-68
2022/01/29 06:18:21;;;;;;;29.40;13.98;;;8.40;99.90;;;;;;5080078;28;20051;-67
2022/01/29 06:20:51;;;;;;;29.02;14.02;;;8.40;99.90;;;;;;5051775;28;20048;-68
2022/01/29 06:23:21;;;;;;;28.33;14.57;;;8.40;99.90;;;;;;5063008;28;20037;-66
2022/01/29 06:25:47;;;;;;;27.98;14.57;;;8.30;99.90;;;;;;5076378;28;20058;-68
2022/01/29 06:28:13;;;;;;;27.33;13.43;;;8.40;99.90;;;;;;5076067;28;20040;-69
2022/01/29 06:30:38;;;;;;;26.52;13.52;;;8.40;99.90;;;;;;5071705;28;20556;-67
2022/01/29 06:33:12;;;;;;;28.25;13.77;;;8.40;99.90;;;;;;5071808;28;20079;-68
2022/01/29 06:35:40;;;;;;;28.25;14.68;;;8.50;99.90;;;;;;5074900;28;20044;-67
2022/01/29 06:38:06;;;;;;;22.87;13.03;;;8.40;99.90;;;;;;5080777;28;20525;-67
2022/01/29 06:40:33;;;;;;;22.65;13.75;;;8.40;99.90;;;;;;5077032;28;20326;-67
2022/01/29 06:43:01;;;;;;;26.17;13.20;;;8.40;99.90;;;;;;5073298;28;20398;-67
2022/01/29 06:45:28;;;;;;;26.00;13.90;;;8.40;99.90;;;;;;5073755;28;20040;-70
2022/01/29 06:47:54;;;;;;;29.50;14.30;;;8.50;99.90;;;;;;5057750;28;20044;-68
2022/01/29 06:50:20;;;;;;;26.27;13.52;;;8.50;99.90;;;;;;5074452;28;20045;-66
2022/01/29 06:52:45;;;;;;;26.98;13.38;;;8.50;99.90;;;;;;5078386;28;20266;-66
2022/01/29 06:55:11;;;;;;;33.25;13.23;;;8.40;99.90;;;;;;5074808;28;20063;-66
2022/01/29 06:57:37;;;;;;;25.20;12.98;;;8.40;99.90;;;;;;5066179;28;20040;-68
2022/01/29 07:00:07;;;;;;;27.17;13.05;;;8.40;99.90;;;;;;5065583;28;20509;-66
2022/01/29 07:02:33;;;;;;;28.33;13.77;;;8.50;99.90;;;;;;5067296;28;20078;-67
2022/01/29 07:04:58;;;;;;;25.20;13.52;;;8.50;99.90;;;;;;5074110;28;20040;-68
2022/01/29 07:07:24;;;;;;;25.88;13.15;;;8.50;99.90;;;;;;5068452;28;20043;-65
2022/01/29 07:09:50;;;;;;;29.40;13.27;;;8.50;99.90;;;;;;5069495;28;20041;-67
2022/01/29 07:12:15;;;;;;;27.33;12.95;;;8.50;99.90;;;;;;5075834;28;20398;-66
2022/01/29 07:14:41;;;;;;;24.48;13.65;;;8.50;99.90;;;;;;5070228;28;20045;-66
2022/01/29 07:17:12;;;;;;;34.88;12.90;;;8.50;99.90;;;;;;5059695;28;20062;-66
2022/01/29 07:19:39;;;;;;;34.63;14.95;;;8.50;99.90;;;;;;5063774;28;20055;-67
2022/01/29 07:22:05;;;;;;;31.58;12.68;;;8.50;99.90;;;;;;5061236;28;20128;-68
2022/01/29 07:24:32;;;;;;;25.08;12.98;;;8.50;99.90;;;;;;5067977;28;20041;-67
2022/01/29 07:26:58;;;;;;;25.25;13.30;;;8.90;99.90;;;;;;5069179;28;20064;-67
2022/01/29 07:29:24;;;;;;;28.92;12.60;;;8.50;99.90;;;;;;5064067;28;20037;-68
2022/01/29 07:31:50;;;;;;;24.48;12.40;;;8.50;99.90;;;;;;5068888;28;20044;-67
2022/01/29 07:34:17;;;;;;;23.02;13.00;;;8.50;99.90;;;;;;5072111;28;20040;-66
2022/01/29 07:36:43;;;;;;;25.88;12.63;;;8.60;99.90;;;;;;5070798;28;20127;-66
2022/01/29 07:39:09;;;;;;;24.50;12.63;;;8.50;99.90;;;;;;5067539;28;20088;-68
2022/01/29 07:41:34;;;;;;;24.95;12.13;;;8.60;99.90;;;;;;5077130;28;20368;-66
2022/01/29 07:44:00;;;;;;;25.90;12.40;;;8.60;99.90;;;;;;5073196;28;20063;-65
2022/01/29 07:46:26;;;;;;;27.88;12.43;;;8.60;99.90;;;;;;5071996;28;20050;-66
2022/01/29 07:48:52;;;;;;;23.92;11.55;;;8.60;99.90;;;;;;5074732;28;20037;-68
2022/01/29 07:51:17;;;;;;;25.13;11.95;;;8.60;99.90;;;;;;5077563;28;20115;-67
2022/01/29 07:53:43;;;;;;;22.10;12.55;;;8.60;99.90;;;;;;5072695;28;20033;-71
2022/01/29 07:56:09;;;;;;;19.42;11.63;;;8.60;99.90;;;;;;5070051;28;20040;-71
2022/01/29 07:58:35;;;;;;;29.48;11.38;;;8.60;99.90;;;;;;5070963;28;20036;-69
2022/01/29 08:01:01;;;;;;;28.25;12.98;;;8.60;99.90;;;;;;5071187;28;20051;-68
2022/01/29 08:03:27;;;;;;;23.30;11.25;;;8.50;99.90;;;;;;5068959;28;20103;-67
2022/01/29 08:05:53;;;;;;;23.98;11.65;;;8.50;99.90;;;;;;5079196;28;20036;-68
2022/01/29 08:08:18;;;;;;;21.70;11.13;;;8.50;99.90;;;;;;5077653;28;20036;-67
2022/01/29 08:10:44;;;;;;;26.83;11.27;;;8.50;99.90;;;;;;5081111;28;20032;-68
2022/01/29 08:13:09;;;;;;;23.42;11.55;;;8.50;99.90;;;;;;5072415;28;20040;-67
2022/01/29 08:15:35;;;;;;;21.67;9.70;;;8.50;99.90;;;;;;5075790;28;20032;-67
2022/01/29 08:18:00;;;;;;;22.60;9.90;;;8.50;99.90;;;;;;5078103;28;20093;-67
2022/01/29 08:20:26;;;;;;;18.88;9.85;;;8.60;99.90;;;;;;5079412;28;20409;-66
2022/01/29 08:22:52;;;;;;;24.90;10.02;;;8.60;99.90;;;;;;5080501;28;20045;-68
2022/01/29 08:25:17;;;;;;;18.77;9.30;;;8.60;99.90;;;;;;5082030;28;20048;-67
2022/01/29 08:27:43;;;;;;;16.30;9.70;;;8.60;99.90;;;;;;5080161;28;20076;-67
2022/01/29 08:30:09;;;;;;;22.48;9.85;;;8.60;99.90;;;;;;5073385;28;20051;-67
2022/01/29 08:32:41;;;;;;;22.20;8.93;;;8.70;99.90;;;;;;5079529;28;20051;-68
2022/01/29 08:35:09;;;;;;;18.40;8.65;;;8.70;99.90;;;;;;5069803;28;20056;-68
2022/01/29 08:37:34;;;;;;;19.10;8.90;;;8.70;99.90;;;;;;5070198;28;20048;-67
2022/01/29 08:40:00;;;;;;;19.02;9.27;;;8.70;99.90;;;;;;5063084;28;20029;-67
2022/01/29 08:42:25;;;;;;;17.52;8.43;;;8.70;99.90;;;;;;5071783;28;20483;-68
2022/01/29 08:44:51;;;;;;;21.50;7.97;;;8.70;99.90;;;;;;5069702;28;20041;-67
2022/01/29 08:47:17;;;;;;;22.17;7.95;;;9.00;99.90;;;;;;5070788;28;20125;-67
2022/01/29 08:49:42;;;;;;;22.02;8.18;;;8.80;99.90;;;;;;5068083;28;20102;-67
2022/01/29 08:52:08;;;;;;;17.60;7.82;;;8.80;99.90;;;;;;5067277;28;20513;-67
2022/01/29 08:54:33;;;;;;;12.45;6.93;;;9.10;99.90;;;;;;5079082;28;20048;-67
2022/01/29 08:56:59;;;;;;;14.43;6.75;;;9.00;99.90;;;;;;5077838;28;20041;-67
2022/01/29 08:59:25;;;;;;;15.05;6.75;;;9.00;99.90;;;;;;5074799;28;20486;-69
2022/01/29 09:01:50;;;;;;;15.93;6.43;;;9.00;99.90;;;;;;5076316;28;20045;-67
2022/01/29 09:04:16;;;;;;;18.30;6.63;;;9.10;99.90;;;;;;5065162;28;20037;-69
2022/01/29 09:06:41;;;;;;;13.00;6.22;;;9.10;99.90;;;;;;5072768;28;20044;-67
2022/01/29 09:09:07;;;;;;;16.08;6.10;;;9.10;99.90;;;;;;5054462;28;20044;-67
2022/01/29 09:11:34;;;;;;;17.25;6.50;;;9.10;99.90;;;;;;5076569;28;20060;-67
2022/01/29 09:13:59;;;;;;;11.85;5.82;;;9.20;99.90;;;;;;5078806;28;20048;-68
2022/01/29 09:16:25;;;;;;;14.57;6.03;;;9.20;99.90;;;;;;5071724;28;20044;-66
2022/01/29 09:18:50;;;;;;;18.70;5.95;;;9.20;99.90;;;;;;5078522;28;20029;-69
2022/01/29 09:21:16;;;;;;;13.85;5.68;;;9.20;99.90;;;;;;5059902;28;20508;-68
2022/01/29 09:23:42;;;;;;;15.60;5.68;;;9.30;99.90;;;;;;5077964;28;20072;-67
2022/01/29 09:26:08;;;;;;;15.45;5.80;;;9.20;99.90;;;;;;5083170;28;20048;-66
2022/01/29 09:28:33;;;;;;;15.60;5.68;;;9.20;99.90;;;;;;5079611;28;20060;-67
2022/01/29 09:30:59;;;;;;;11.30;4.95;;;9.20;99.90;;;;;;5077637;28;20094;-68
2022/01/29 09:33:25;;;;;;;11.38;5.10;;;9.30;99.90;;;;;;5072738;28;20063;-67
2022/01/29 09:35:50;;;;;;;14.38;5.15;;;9.30;99.90;;;;;;5076003;28;20059;-70
2022/01/29 09:38:16;;;;;;;11.88;4.85;;;9.30;99.90;;;;;;5078264;28;20054;-68
2022/01/29 09:40:43;;;;;;;12.90;5.35;;;9.40;99.90;;;;;;5070613;28;20044;-68
2022/01/29 09:43:10;;;;;;;12.95;4.75;;;9.40;99.90;;;;;;5064209;28;20036;-66
2022/01/29 09:45:36;;;;;;;15.75;4.97;;;9.40;99.90;;;;;;5065167;28;20090;-66
2022/01/29 09:48:03;;;;;;;17.90;5.20;;;9.50;99.90;;;;;;5062335;28;20051;-68
2022/01/29 09:50:31;;;;;;;12.77;4.25;;;9.40;99.90;;;;;;5062023;28;20048;-68
2022/01/29 09:52:59;;;;;;;11.90;4.93;;;9.50;99.90;;;;;;5063682;28;20052;-68
2022/01/29 09:55:26;;;;;;;11.60;4.07;;;9.50;99.90;;;;;;5057679;28;20090;-68
2022/01/29 09:57:55;;;;;;;13.95;4.78;;;9.50;99.90;;;;;;5069179;28;20294;-67
2022/01/29 10:00:21;;;;;;;12.32;3.90;;;9.50;99.90;;;;;;5072227;28;20051;-67
2022/01/29 10:03:14;;;;;;;13.13;4.25;;;9.50;99.90;;;;;;5078542;28;20045;-67
2022/01/29 10:05:51;;;;;;;12.25;4.30;;;9.60;99.90;;;;;;5079130;28;20520;-67
2022/01/29 10:08:18;;;;;;;9.95;3.53;;;9.60;99.90;;;;;;5060730;28;20045;-67
2022/01/29 10:11:02;;;;;;;10.73;3.78;;;9.60;99.90;;;;;;5059417;28;20114;-68
2022/01/29 10:13:36;;;;;;;8.75;3.78;;;9.60;99.90;;;;;;5062181;28;20095;-67
2022/01/29 10:16:04;;;;;;;11.38;3.90;;;9.60;99.90;;;;;;5071984;28;20045;-68
2022/01/29 10:18:30;;;;;;;10.77;3.20;;;9.70;99.90;;;;;;5074571;28;20076;-67
2022/01/29 10:21:11;;;;;;;9.93;3.63;;;9.70;99.90;;;;;;5042418;28;20384;-67
2022/01/29 10:23:37;;;;;;;8.57;3.33;;;9.70;99.90;;;;;;5058843;28;20143;-67
2022/01/29 10:26:04;;;;;;;11.88;3.10;;;9.70;99.90;;;;;;5058010;28;20053;-68
2022/01/29 10:28:31;;;;;;;15.63;4.00;;;9.70;99.90;;;;;;5065018;28;20493;-68
2022/01/29 10:31:05;;;;;;;12.43;3.58;;;9.80;99.90;;;;;;5051039;28;20063;-68
2022/01/29 10:33:37;;;;;;;13.35;3.20;;;9.80;99.90;;;;;;5074519;28;20036;-67
2022/01/29 10:36:16;;;;;;;12.30;3.65;;;9.80;99.90;;;;;;5064815;28;20040;-70
2022/01/29 10:38:45;;;;;;;;;;;9.80;99.90;;;;;;5075843;28;20040;-66
2022/01/29 10:41:17;;;;;;;9.73;2.95;;;9.80;99.90;;;;;;5068888;28;20215;-66
2022/01/29 10:44:16;;;;;;;13.70;3.42;;;9.80;99.90;;;;;;5069206;28;20055;-68
2022/01/29 10:46:42;;;;;;;11.27;3.15;;;9.90;99.90;;;;;;5070316;28;20052;-67
2022/01/29 10:49:44;;;;;;;11.57;2.90;;;9.90;99.90;;;;;;5072970;28;20040;-66
2022/01/29 10:52:13;;;;;;;8.38;2.80;;;9.90;99.90;;;;;;5060023;28;20060;-68
2022/01/29 10:54:40;;;;;;;6.22;2.63;;;9.90;99.90;;;;;;5079894;28;20044;-67
2022/01/29 10:57:17;;;;;;;14.35;2.80;;;9.90;99.90;;;;;;5075171;28;20139;-66
2022/01/29 10:59:51;;;;;;;15.80;3.22;;;9.90;99.90;;;;;;5076306;28;20370;-67
2022/01/29 11:02:19;;;;;;;7.72;2.47;;;9.90;99.90;;;;;;5077386;28;20037;-67
2022/01/29 11:04:45;;;;;;;9.95;2.50;;;9.90;99.90;;;;;;5083556;28;20550;-67
2022/01/29 11:07:18;;;;;;;13.63;3.38;;;9.90;99.90;;;;;;5082920;28;20045;-68
2022/01/29 11:09:46;;;;;;;17.05;3.28;;;9.90;99.90;;;;;;5066580;28;20041;-67
2022/01/29 11:12:22;;;;;;;6.93;2.60;;;10.00;99.90;;;;;;5067456;28;20049;-69
2022/01/29 11:14:50;;;;;;;10.93;2.60;;;10.00;99.90;;;;;;5084365;28;20058;-68
2022/01/29 11:17:19;;;;;;;10.48;3.08;;;10.00;99.90;;;;;;5072415;28;20403;-67
2022/01/29 11:19:46;;;;;;;11.32;2.65;;;10.00;99.90;;;;;;5076294;28;20075;-68
2022/01/29 11:22:12;;;;;;;11.27;2.97;;;10.10;99.90;;;;;;5077161;28;20479;-66
2022/01/29 11:24:41;;;;;;;13.57;3.10;;;10.10;99.90;;;;;;5064982;28;20137;-66
2022/01/29 11:27:18;;;;;;;7.95;2.38;;;10.10;99.90;;;;;;5078798;28;20049;-66
2022/01/29 11:30:10;;;;;;;8.98;2.92;;;10.10;99.90;;;;;;5086651;28;20088;-68
2022/01/29 11:32:54;;;;;;;8.70;2.35;;;10.10;99.90;;;;;;5074656;28;20076;-68
2022/01/29 11:35:30;;;;;;;12.82;2.97;;;10.10;99.90;;;;;;5077785;28;20052;-66
2022/01/29 11:37:57;;;;;;;17.05;3.13;;;10.10;99.90;;;;;;5080571;28;20049;-68
2022/01/29 11:40:24;;;;;;;12.70;2.33;;;10.10;99.90;;;;;;5070716;28;20072;-67
2022/01/29 11:43:04;;;;;;;8.48;2.42;;;10.10;99.90;;;;;;5065823;28;20056;-68
2022/01/29 11:45:40;;;;;;;11.90;2.17;;;10.20;99.90;;;;;;5069382;28;20049;-67
2022/01/29 11:48:29;;;;;;;8.30;2.20;;;10.10;99.90;;;;;;5064545;28;20041;-69
2022/01/29 11:51:08;;;;;;;10.38;2.53;;;10.20;99.90;;;;;;5075962;28;20405;-67
2022/01/29 11:53:46;;;;;;;13.13;2.85;;;10.30;99.90;;;;;;5079725;28;20052;-67
2022/01/29 11:56:32;;;;;;;9.13;2.60;;;10.20;99.90;;;;;;5070209;28;20045;-67
2022/01/29 11:59:19;;;;;;;15.55;2.15;;;10.40;99.90;;;;;;5066766;28;20128;-68
2022/01/29 12:01:47;;;;;;;6.70;1.98;;;10.40;99.90;;;;;;5079864;28;20032;-69
2022/01/29 12:04:14;;;;;;;16.77;3.05;;;10.40;99.90;;;;;;5066760;28;20178;-71
2022/01/29 12:07:09;;;;;;;8.30;2.13;;;10.50;99.90;;;;;;5074743;28;20055;-68
2022/01/29 12:09:49;;;;;;;9.65;2.70;;;10.50;99.90;;;;;;5078818;28;20098;-68
2022/01/29 12:12:26;;;;;;;11.02;2.55;;;10.60;99.90;;;;;;5076791;28;20037;-68
2022/01/29 12:14:56;;;;;;;6.72;2.00;;;10.60;99.90;;;;;;5076398;28;20399;-67
2022/01/29 12:17:44;;;;;;;8.23;2.30;;;10.60;99.90;;;;;;5076951;28;20044;-67
2022/01/29 12:20:12;;;;;;;6.57;2.13;;;10.60;99.90;;;;;;5078421;28;20071;-68
2022/01/29 12:22:39;;;;;;;10.18;2.40;;;10.70;99.90;;;;;;5069919;28;20131;-69
2022/01/29 12:25:14;;;;;;;13.07;2.55;;;10.80;99.90;;;;;;5079659;28;20040;-67
2022/01/29 12:27:50;;;;;;;8.90;2.40;;;10.80;99.90;;;;;;5082410;28;20059;-68
2022/01/29 12:30:21;;;;;;;10.95;2.53;;;10.80;99.90;;;;;;5078770;28;20059;-67
2022/01/29 12:33:17;;;;;;;9.40;1.90;;;10.80;99.90;;;;;;5072431;28;20036;-68
2022/01/29 12:35:58;;;;;;;9.95;2.22;;;10.80;99.90;;;;;;5076555;28;20044;-67
2022/01/29 12:38:34;;;;;;;7.85;2.38;;;10.90;99.90;;;;;;5046866;28;20060;-68
2022/01/29 12:41:29;;;;;;;12.93;2.65;;;10.90;99.90;;;;;;5079964;28;20047;-66
2022/01/29 12:44:01;;;;;;;14.02;2.35;;;11.00;99.90;;;;;;5077328;28;20065;-68
2022/01/29 12:46:29;;;;;;;12.88;2.88;;;10.90;99.90;;;;;;5076540;28;20048;-67
2022/01/29 12:49:02;;;;;;;11.20;2.30;;;11.10;99.90;;;;;;5076325;28;20116;-67
2022/01/29 12:51:29;;;;;;;16.35;2.50;;;11.00;99.90;;;;;;5085601;28;20052;-67
2022/01/29 12:53:59;;;;;;;15.60;2.88;;;11.10;99.90;;;;;;5081821;28;20032;-65
2022/01/29 12:56:36;;;;;;;11.63;2.90;;;11.00;99.90;;;;;;5080277;28;20124;-67